createdAt,value
2018-05-02T00:01:09.117Z,2.30
2018-05-02T00:03:42.783Z,2.37
2018-05-02T00:09:09.814Z,2.57
2018-05-02T00:11:43.441Z,2.17
2018-05-02T00:14:17.876Z,2.60
2018-05-02T00:16:51.491Z,2.40
2018-05-02T00:19:26.144Z,2.80
2018-05-02T00:22:00.739Z,2.70
2018-05-02T00:24:34.421Z,3.03
2018-05-02T00:27:08.073Z,2.20
2018-05-02T00:29:42.684Z,2.70
2018-05-02T00:32:16.303Z,2.33
2018-05-02T00:34:50.939Z,2.40
2018-05-02T00:37:24.560Z,2.90
2018-05-02T00:39:59.378Z,2.83
2018-05-02T00:42:40.207Z,2.73
2018-05-02T00:45:14.659Z,2.83
2018-05-02T00:47:48.317Z,2.87
2018-05-02T00:50:21.939Z,2.50
2018-05-02T00:52:55.596Z,2.43
2018-05-02T00:55:29.209Z,2.67
2018-05-02T00:58:02.864Z,2.87
2018-05-02T01:00:38.238Z,2.90
2018-05-02T01:03:12.857Z,2.37
2018-05-02T01:05:46.479Z,2.87
2018-05-02T01:08:19.928Z,2.43
2018-05-02T01:10:55.284Z,2.63
2018-05-02T01:13:29.920Z,2.80
2018-05-02T01:16:03.324Z,2.90
2018-05-02T01:18:38.001Z,3.13
2018-05-02T01:21:11.809Z,3.20
2018-05-02T01:23:45.483Z,3.10
2018-05-02T01:26:19.136Z,3.33
2018-05-02T01:28:53.759Z,3.03
2018-05-02T01:31:27.389Z,3.20
2018-05-02T01:34:02.012Z,3.17
2018-05-02T01:36:35.633Z,3.37
2018-05-02T01:39:10.271Z,3.30
2018-05-02T01:41:44.856Z,3.13
2018-05-02T01:44:19.486Z,3.27
2018-05-02T01:46:54.074Z,3.20
2018-05-02T01:49:27.746Z,3.93
2018-05-02T01:52:01.377Z,3.27
2018-05-02T01:54:35.044Z,3.60
2018-05-02T01:57:09.648Z,3.70
2018-05-02T01:59:44.274Z,3.97
2018-05-02T02:02:17.923Z,3.70
2018-05-02T02:04:50.911Z,3.63
2018-05-02T02:07:24.559Z,3.73
2018-05-02T02:09:58.189Z,3.80
2018-05-02T02:12:32.619Z,3.73
2018-05-02T02:15:07.478Z,4.33
2018-05-02T02:17:42.083Z,4.13
2018-05-02T02:20:15.744Z,4.10
2018-05-02T02:22:49.365Z,4.43
2018-05-02T02:25:23.789Z,4.67
2018-05-02T02:27:58.194Z,4.17
2018-05-02T02:30:32.423Z,5.23
2018-05-02T02:33:06.803Z,4.50
2018-05-02T02:35:40.471Z,3.97
2018-05-02T02:38:15.065Z,3.80
2018-05-02T02:40:49.524Z,4.10
2018-05-02T02:43:23.709Z,4.20
2018-05-02T02:45:58.321Z,4.10
2018-05-02T02:48:38.146Z,4.30
2018-05-02T02:51:14.972Z,4.73
2018-05-02T02:56:34.233Z,4.90
2018-05-02T02:59:07.859Z,4.63
2018-05-02T03:04:36.002Z,4.80
2018-05-02T03:10:16.550Z,4.63
2018-05-02T03:15:39.364Z,5.07
2018-05-02T03:18:15.238Z,4.57
2018-05-02T03:20:52.969Z,4.77
2018-05-02T03:23:26.601Z,5.20
2018-05-02T03:26:01.127Z,4.87
2018-05-02T03:28:34.760Z,5.40
2018-05-02T03:31:08.812Z,5.53
2018-05-02T03:33:43.188Z,4.77
2018-05-02T03:36:16.852Z,5.33
2018-05-02T03:38:58.512Z,5.07
2018-05-02T03:44:45.979Z,5.07
2018-05-02T03:47:34.214Z,4.93
2018-05-02T03:50:11.771Z,4.97
2018-05-02T03:52:45.617Z,4.93
2018-05-02T03:55:30.821Z,5.27
2018-05-02T03:58:05.676Z,5.53
2018-05-02T04:00:58.815Z,5.40
2018-05-02T04:03:59.993Z,5.60
2018-05-02T04:09:45.636Z,4.93
2018-05-02T04:12:21.294Z,5.00
2018-05-02T04:14:57.747Z,5.30
2018-05-02T04:17:37.492Z,5.33
2018-05-02T04:20:12.182Z,5.10
2018-05-02T04:22:45.812Z,5.23
2018-05-02T04:25:21.207Z,4.63
2018-05-02T04:27:54.836Z,5.47
2018-05-02T04:30:28.501Z,4.73
2018-05-02T04:33:02.133Z,5.10
2018-05-02T04:35:36.765Z,5.93
2018-05-02T04:38:12.197Z,5.30
2018-05-02T04:40:46.851Z,4.97
2018-05-02T04:43:21.438Z,5.23
2018-05-02T04:45:55.100Z,4.80
2018-05-02T04:48:28.720Z,5.00
2018-05-02T04:51:02.415Z,4.70
2018-05-02T04:53:36.079Z,3.80
2018-05-02T04:56:09.772Z,3.80
2018-05-02T04:58:44.164Z,3.60
2018-05-02T05:01:17.833Z,3.60
2018-05-02T05:03:51.468Z,3.60
2018-05-02T05:06:25.172Z,3.90
2018-05-02T05:08:58.788Z,4.17
2018-05-02T05:11:34.182Z,4.00
2018-05-02T05:14:07.803Z,3.93
2018-05-02T05:16:41.459Z,4.40
2018-05-02T05:19:15.099Z,4.10
2018-05-02T05:21:48.767Z,4.07
2018-05-02T05:24:22.407Z,4.30
2018-05-02T05:26:56.067Z,4.03
2018-05-02T05:29:29.692Z,3.70
2018-05-02T05:32:04.314Z,3.90
2018-05-02T05:34:38.920Z,3.27
2018-05-02T05:37:12.585Z,3.60
2018-05-02T05:39:46.213Z,3.30
2018-05-02T05:42:19.876Z,3.37
2018-05-02T05:44:53.563Z,3.43
2018-05-02T05:47:27.239Z,3.10
2018-05-02T05:50:00.853Z,2.90
2018-05-02T05:52:35.480Z,2.90
2018-05-02T05:55:10.067Z,2.73
2018-05-02T05:57:43.725Z,2.70
2018-05-02T06:00:20.791Z,2.33
2018-05-02T06:02:54.568Z,2.70
2018-05-02T06:05:28.196Z,2.40
2018-05-02T06:08:02.527Z,2.50
2018-05-02T06:10:36.923Z,2.50
2018-05-02T06:13:10.581Z,2.93
2018-05-02T06:15:45.172Z,2.87
2018-05-02T06:18:20.586Z,2.50
2018-05-02T06:20:54.210Z,2.43
2018-05-02T06:23:28.642Z,2.00
2018-05-02T06:26:03.037Z,2.67
2018-05-02T06:28:36.703Z,2.23
2018-05-02T06:31:10.331Z,2.33
2018-05-02T06:33:44.957Z,1.83
2018-05-02T06:36:18.609Z,2.07
2018-05-02T06:38:52.296Z,2.13
2018-05-02T06:41:25.928Z,2.37
2018-05-02T06:43:59.600Z,2.13
2018-05-02T06:46:33.797Z,2.83
2018-05-02T06:49:08.064Z,2.33
2018-05-02T06:51:43.221Z,2.40
2018-05-02T06:54:17.467Z,2.50
2018-05-02T06:56:51.090Z,2.55
2018-05-02T06:59:25.317Z,2.35
2018-05-02T07:01:58.953Z,2.80
2018-05-02T07:04:33.576Z,2.57
2018-05-02T07:07:07.278Z,2.30
2018-05-02T07:09:41.068Z,2.47
2018-05-02T07:12:14.695Z,2.30
2018-05-02T07:14:49.130Z,2.40
2018-05-02T07:17:23.531Z,2.00
2018-05-02T07:19:57.964Z,2.20
2018-05-02T07:22:32.363Z,2.20
2018-05-02T07:25:06.028Z,2.00
2018-05-02T07:27:39.653Z,2.60
2018-05-02T07:30:13.320Z,2.47
2018-05-02T07:32:47.154Z,2.27
2018-05-02T07:35:21.787Z,2.17
2018-05-02T07:37:55.434Z,1.80
2018-05-02T07:40:29.155Z,2.33
2018-05-02T07:43:02.789Z,2.07
2018-05-02T07:45:36.455Z,2.20
2018-05-02T07:48:10.091Z,2.20
2018-05-02T07:50:43.801Z,1.90
2018-05-02T07:53:17.422Z,1.80
2018-05-02T07:55:51.649Z,1.58
2018-05-02T07:58:25.843Z,1.87
2018-05-02T08:01:00.280Z,2.00
2018-05-02T08:03:33.911Z,1.60
2018-05-02T08:06:07.580Z,1.97
2018-05-02T08:08:41.218Z,1.90
2018-05-02T08:11:14.892Z,1.70
2018-05-02T08:13:48.523Z,1.57
2018-05-02T08:16:23.227Z,1.50
2018-05-02T08:18:57.540Z,1.42
2018-05-02T08:21:31.205Z,1.37
2018-05-02T08:24:06.547Z,1.30
2018-05-02T08:26:41.943Z,1.17
2018-05-02T08:29:15.567Z,1.07
2018-05-02T08:31:49.240Z,1.40
2018-05-02T08:34:23.830Z,1.33
2018-05-02T08:36:58.476Z,1.20
2018-05-02T08:39:32.661Z,1.20
2018-05-02T08:42:06.911Z,1.20
2018-05-02T08:44:41.865Z,1.10
2018-05-02T08:47:15.767Z,1.33
2018-05-02T08:49:49.496Z,1.27
2018-05-02T08:52:24.045Z,1.17
2018-05-02T08:54:57.680Z,1.40
2018-05-02T08:57:33.656Z,1.42
2018-05-02T09:00:07.285Z,1.10
2018-05-02T09:02:41.512Z,1.40
2018-05-02T09:05:16.673Z,1.50
2018-05-02T09:07:52.638Z,1.40
2018-05-02T09:10:26.828Z,1.20
2018-05-02T09:13:01.094Z,1.20
2018-05-02T09:15:35.325Z,1.42
2018-05-02T09:18:09.727Z,1.10
2018-05-02T09:20:43.916Z,1.30
2018-05-02T09:23:18.901Z,1.58
2018-05-02T09:25:53.100Z,1.40
2018-05-02T09:28:28.290Z,1.80
2018-05-02T09:31:03.453Z,1.50
2018-05-02T09:33:37.682Z,1.50
2018-05-02T09:36:11.878Z,1.33
2018-05-02T09:38:46.114Z,1.65
2018-05-02T09:41:20.312Z,1.40
2018-05-02T09:43:54.545Z,1.70
2018-05-02T09:46:28.771Z,1.70
2018-05-02T09:49:03.992Z,1.80
2018-05-02T09:51:38.401Z,1.80
2018-05-02T09:54:12.060Z,2.10
2018-05-02T09:56:45.688Z,1.60
2018-05-02T09:59:19.350Z,1.97
2018-05-02T10:01:52.976Z,2.07
2018-05-02T10:04:26.677Z,1.93
2018-05-02T10:07:00.312Z,2.27
2018-05-02T10:09:35.737Z,2.00
2018-05-02T10:12:09.363Z,2.50
2018-05-02T10:14:44.015Z,2.40
2018-05-02T10:17:18.616Z,2.60
2018-05-02T10:19:54.021Z,2.60
2018-05-02T10:22:28.631Z,2.00
2018-05-02T10:25:02.311Z,2.53
2018-05-02T10:27:36.921Z,2.97
2018-05-02T10:30:10.592Z,2.90
2018-05-02T10:32:44.222Z,2.73
2018-05-02T10:35:17.913Z,2.87
2018-05-02T10:37:53.080Z,2.65
2018-05-02T10:40:26.755Z,2.70
2018-05-02T10:43:01.031Z,2.75
2018-05-02T10:45:35.386Z,2.47
2018-05-02T10:48:09.577Z,3.00
2018-05-02T10:50:44.792Z,2.90
2018-05-02T10:53:18.976Z,3.03
2018-05-02T10:55:54.094Z,2.62
2018-05-02T10:58:28.264Z,2.70
2018-05-02T11:01:03.493Z,2.60
2018-05-02T11:03:37.685Z,2.80
2018-05-02T11:06:11.374Z,2.67
2018-05-02T11:08:45.004Z,2.40
2018-05-02T11:11:18.751Z,1.93
2018-05-02T11:13:52.379Z,2.57
2018-05-02T11:16:25.838Z,2.33
2018-05-02T11:18:59.469Z,2.57
2018-05-02T11:21:34.110Z,2.37
2018-05-02T11:24:07.741Z,2.30
2018-05-02T11:26:41.405Z,2.50
2018-05-02T11:29:15.045Z,2.47
2018-05-02T11:31:48.717Z,2.53
2018-05-02T11:34:22.349Z,2.63
2018-05-02T11:36:56.029Z,2.87
2018-05-02T11:39:30.234Z,2.60
2018-05-02T11:42:03.900Z,2.30
2018-05-02T11:44:37.548Z,2.60
2018-05-02T11:47:11.218Z,3.00
2018-05-02T11:49:46.192Z,2.05
2018-05-02T11:52:21.408Z,2.50
2018-05-02T11:54:55.598Z,2.20
2018-05-02T11:57:29.817Z,2.80
2018-05-02T12:00:03.672Z,2.40
2018-05-02T12:02:37.917Z,3.22
2018-05-02T12:05:12.119Z,3.10
2018-05-02T12:07:46.343Z,2.62
2018-05-02T12:10:20.586Z,2.80
2018-05-02T12:12:55.831Z,3.08
2018-05-02T12:15:29.465Z,2.50
2018-05-02T12:18:03.158Z,3.10
2018-05-02T12:20:36.791Z,2.83
2018-05-02T12:23:11.309Z,2.83
2018-05-02T12:25:44.940Z,2.83
2018-05-02T12:28:18.616Z,2.97
2018-05-02T12:30:52.246Z,2.50
2018-05-02T12:33:25.909Z,2.40
2018-05-02T12:35:59.531Z,2.10
2018-05-02T12:38:33.197Z,2.60
2018-05-02T12:41:07.592Z,3.07
2018-05-02T12:43:42.212Z,2.92
2018-05-02T12:46:16.127Z,3.10
2018-05-02T12:48:50.765Z,2.97
2018-05-02T12:51:25.190Z,3.30
2018-05-02T12:53:59.864Z,3.10
2018-05-02T12:56:33.561Z,2.67
2018-05-02T12:59:07.194Z,2.97
2018-05-02T13:01:40.850Z,2.87
2018-05-02T13:06:57.025Z,3.40
2018-05-02T13:09:30.683Z,3.90
2018-05-02T13:12:04.351Z,2.83
2018-05-02T13:14:38.547Z,3.10
2018-05-02T13:17:12.268Z,2.97
2018-05-02T13:19:45.909Z,3.53
2018-05-02T13:22:19.592Z,3.10
2018-05-02T13:24:52.900Z,3.20
2018-05-02T13:27:26.579Z,2.65
2018-05-02T13:30:00.245Z,2.90
2018-05-02T13:32:34.640Z,2.83
2018-05-02T13:35:08.304Z,3.30
2018-05-02T13:37:42.922Z,3.00
2018-05-02T13:40:18.799Z,2.78
2018-05-02T13:42:52.434Z,2.77
2018-05-02T13:45:26.714Z,2.80
2018-05-02T13:48:00.348Z,2.70
2018-05-02T13:50:34.908Z,2.60
2018-05-02T13:53:08.557Z,2.70
2018-05-02T13:55:43.180Z,2.60
2018-05-02T13:58:16.816Z,2.77
2018-05-02T14:00:50.680Z,2.40
2018-05-02T14:03:24.503Z,2.47
2018-05-02T14:05:58.721Z,2.23
2018-05-02T14:08:33.147Z,2.70
2018-05-02T14:11:07.998Z,2.30
2018-05-02T14:13:41.634Z,2.30
2018-05-02T14:16:15.441Z,2.60
2018-05-02T14:18:49.316Z,2.50
2018-05-02T14:21:26.284Z,2.20
2018-05-02T14:24:00.931Z,2.60
2018-05-02T14:26:38.323Z,2.53
2018-05-02T14:29:13.755Z,2.20
2018-05-02T14:31:47.575Z,2.73
2018-05-02T14:34:22.204Z,2.73
2018-05-02T14:36:55.836Z,3.00
2018-05-02T14:39:30.063Z,2.28
2018-05-02T14:42:04.456Z,2.60
2018-05-02T14:44:39.078Z,2.57
2018-05-02T14:47:13.657Z,2.23
2018-05-02T14:49:47.322Z,2.43
2018-05-02T14:52:21.708Z,2.13
2018-05-02T14:54:55.392Z,2.20
2018-05-02T14:57:29.025Z,1.87
2018-05-02T15:00:02.685Z,2.23
2018-05-02T15:02:36.321Z,2.20
2018-05-02T15:05:10.107Z,2.77
2018-05-02T15:07:43.732Z,2.40
2018-05-02T15:10:17.405Z,2.43
2018-05-02T15:12:51.032Z,2.27
2018-05-02T15:15:26.283Z,2.27
2018-05-02T15:18:01.280Z,2.60
2018-05-02T15:20:38.893Z,1.90
2018-05-02T15:23:13.528Z,2.00
2018-05-02T15:25:48.466Z,1.57
2018-05-02T15:28:24.398Z,1.87
2018-05-02T15:33:52.365Z,1.60
2018-05-02T15:36:28.652Z,1.87
2018-05-02T15:39:14.252Z,1.90
2018-05-02T15:44:30.731Z,1.80
2018-05-02T15:47:07.305Z,1.40
2018-05-02T15:49:49.058Z,2.40
2018-05-02T15:52:28.549Z,1.50
2018-05-02T15:55:02.311Z,1.80
2018-05-02T15:57:35.975Z,2.10
2018-05-02T16:00:10.472Z,2.03
2018-05-02T16:02:43.830Z,2.20
2018-05-02T16:05:17.473Z,2.33
2018-05-02T16:07:51.912Z,2.20
2018-05-02T16:10:26.544Z,2.70
2018-05-02T16:13:01.179Z,2.73
2018-05-02T16:15:34.814Z,2.77
2018-05-02T16:18:08.489Z,2.80
2018-05-02T16:20:42.111Z,2.80
2018-05-02T16:23:16.775Z,2.77
2018-05-02T16:25:52.145Z,3.10
2018-05-02T16:28:25.815Z,3.03
2018-05-02T16:31:00.205Z,2.60
2018-05-02T16:33:34.853Z,2.73
2018-05-02T16:36:10.274Z,2.70
2018-05-02T16:38:43.949Z,2.50
2018-05-02T16:41:17.571Z,3.17
2018-05-02T16:43:52.193Z,3.17
2018-05-02T16:46:26.809Z,3.40
2018-05-02T16:49:00.501Z,3.20
2018-05-02T16:51:34.144Z,2.90
2018-05-02T16:54:07.815Z,2.60
2018-05-02T16:56:41.488Z,2.57
2018-05-02T16:59:17.056Z,3.27
2018-05-02T17:01:50.682Z,3.10
2018-05-02T17:04:26.168Z,2.90
2018-05-02T17:07:01.572Z,3.03
2018-05-02T17:09:36.030Z,2.60
2018-05-02T17:14:51.336Z,2.90
2018-05-02T17:17:27.563Z,3.20
2018-05-02T17:20:01.522Z,3.10
2018-05-02T17:22:35.171Z,3.43
2018-05-02T17:25:08.852Z,3.30
2018-05-02T17:27:42.484Z,2.93
2018-05-02T17:30:30.257Z,3.40
2018-05-02T17:33:04.968Z,3.37
2018-05-02T17:35:39.615Z,3.47
2018-05-02T17:38:14.199Z,3.73
2018-05-02T17:40:47.888Z,3.30
2018-05-02T17:43:21.570Z,3.13
2018-05-02T17:45:56.250Z,3.40
2018-05-02T17:48:29.947Z,3.30
2018-05-02T17:51:04.667Z,3.57
2018-05-02T17:53:38.327Z,3.60
2018-05-02T17:56:13.026Z,3.60
2018-05-02T17:58:46.677Z,3.83
2018-05-02T18:01:23.264Z,3.65
2018-05-02T18:03:57.230Z,3.73
2018-05-02T18:06:42.449Z,4.03
2018-05-02T18:09:35.662Z,4.10
2018-05-02T18:15:05.375Z,8.03
2018-05-02T18:17:56.749Z,4.20
2018-05-02T18:20:36.721Z,4.00
2018-05-02T18:23:21.329Z,3.87
2018-05-02T18:28:54.782Z,4.13
2018-05-02T18:31:33.731Z,4.30
2018-05-02T18:34:10.395Z,4.73
2018-05-02T18:36:50.246Z,4.07
2018-05-02T18:39:38.570Z,4.33
2018-05-02T18:45:00.861Z,4.20
2018-05-02T18:47:36.602Z,4.30
2018-05-02T18:50:14.753Z,4.37
2018-05-02T18:52:50.318Z,4.57
2018-05-02T18:55:29.905Z,4.70
2018-05-02T18:58:06.209Z,3.90
2018-05-02T19:00:42.678Z,4.63
2018-05-02T19:03:21.494Z,4.20
2018-05-02T19:06:01.470Z,4.57
2018-05-02T19:08:43.677Z,4.73
2018-05-02T19:11:19.717Z,5.07
2018-05-02T19:13:59.673Z,4.50
2018-05-02T19:16:33.364Z,4.93
2018-05-02T19:22:18.300Z,4.97
2018-05-02T19:24:57.240Z,5.40
2018-05-02T19:27:31.154Z,5.40
2018-05-02T19:30:05.741Z,5.30
2018-05-02T19:32:45.591Z,5.60
2018-05-02T19:35:19.397Z,6.10
2018-05-02T19:37:53.065Z,5.47
2018-05-02T19:40:32.244Z,5.53
2018-05-02T19:43:19.294Z,5.37
2018-05-02T19:45:53.009Z,6.07
2018-05-02T19:48:26.667Z,5.53
2018-05-02T19:51:05.814Z,5.97
2018-05-02T19:53:39.477Z,5.67
2018-05-02T19:56:13.110Z,5.80
2018-05-02T19:58:46.451Z,6.17
2018-05-02T20:01:26.186Z,5.53
2018-05-02T20:04:00.911Z,5.80
2018-05-02T20:06:35.442Z,5.83
2018-05-02T20:09:14.683Z,5.93
2018-05-02T20:11:54.565Z,6.03
2018-05-02T20:14:29.189Z,6.43
2018-05-02T20:17:03.791Z,5.97
2018-05-02T20:19:37.497Z,5.57
2018-05-02T20:22:11.131Z,5.40
2018-05-02T20:24:44.845Z,5.87
2018-05-02T20:27:18.487Z,5.80
2018-05-02T20:29:53.908Z,5.43
2018-05-02T20:32:29.477Z,5.43
2018-05-02T20:35:07.812Z,6.10
2018-05-02T20:37:41.437Z,5.43
2018-05-02T20:40:15.106Z,6.20
2018-05-02T20:42:54.031Z,6.83
2018-05-02T20:45:28.778Z,7.43
2018-05-02T20:48:02.447Z,6.50
2018-05-02T20:50:45.907Z,6.40
2018-05-02T20:53:25.356Z,6.73
2018-05-02T20:55:59.805Z,7.00
2018-05-02T20:58:33.490Z,6.77
2018-05-02T21:01:07.127Z,6.97
2018-05-02T21:03:52.665Z,6.67
2018-05-02T21:06:28.562Z,6.77
2018-05-02T21:09:03.082Z,6.27
2018-05-02T21:11:41.410Z,6.27
2018-05-02T21:14:15.163Z,5.80
2018-05-02T21:16:50.003Z,6.47
2018-05-02T21:19:24.739Z,6.07
2018-05-02T21:22:00.512Z,5.80
2018-05-02T21:24:35.148Z,6.33
2018-05-02T21:27:10.050Z,5.60
2018-05-02T21:29:45.444Z,5.83
2018-05-02T21:32:20.289Z,5.67
2018-05-02T21:34:54.024Z,6.00
2018-05-02T21:37:28.504Z,5.63
2018-05-02T21:40:02.988Z,5.73
2018-05-02T21:42:37.698Z,6.03
2018-05-02T21:45:13.445Z,5.57
2018-05-02T21:47:47.142Z,5.60
2018-05-02T21:50:22.307Z,5.53
2018-05-02T21:52:55.933Z,4.97
2018-05-02T21:55:30.568Z,5.93
2018-05-02T21:58:04.228Z,5.20
2018-05-02T22:00:37.895Z,5.30
2018-05-02T22:03:12.290Z,5.27
2018-05-02T22:05:45.953Z,5.20
2018-05-02T22:08:19.599Z,5.00
2018-05-02T22:10:53.273Z,5.00
2018-05-02T22:13:27.250Z,5.10
2018-05-02T22:16:01.909Z,5.10
2018-05-02T22:18:35.536Z,5.03
2018-05-02T22:21:09.197Z,5.00
2018-05-02T22:23:42.823Z,5.17
2018-05-02T22:26:16.484Z,4.67
2018-05-02T22:28:50.880Z,4.77
2018-05-02T22:31:24.547Z,4.83
2018-05-02T22:33:58.168Z,5.00
2018-05-02T22:36:32.594Z,4.97
2018-05-02T22:39:07.007Z,5.20
2018-05-02T22:41:41.440Z,4.80
2018-05-02T22:44:17.421Z,4.57
2018-05-02T22:46:51.072Z,4.33
2018-05-02T22:49:24.695Z,4.73
2018-05-02T22:51:58.359Z,4.83
2018-05-02T22:54:31.975Z,5.13
2018-05-02T22:57:06.398Z,4.83
2018-05-02T22:59:40.791Z,4.53
2018-05-02T23:02:14.455Z,4.60
2018-05-02T23:04:48.484Z,4.40
2018-05-02T23:07:22.144Z,4.07
2018-05-02T23:09:56.717Z,4.83
2018-05-02T23:12:30.381Z,5.10
2018-05-02T23:15:06.399Z,4.83
2018-05-02T23:17:41.028Z,4.67
2018-05-02T23:20:15.412Z,4.50
2018-05-02T23:22:50.077Z,4.90
2018-05-02T23:25:23.715Z,5.83
2018-05-02T23:27:58.360Z,5.20
2018-05-02T23:30:31.974Z,5.27
2018-05-02T23:33:06.644Z,5.67
2018-05-02T23:35:40.276Z,5.57
2018-05-02T23:38:13.935Z,5.50
2018-05-02T23:40:47.565Z,5.60
2018-05-02T23:43:22.181Z,5.80
2018-05-02T23:45:55.802Z,5.50
2018-05-02T23:48:29.467Z,5.13
2018-05-02T23:51:04.050Z,5.80
2018-05-02T23:53:38.718Z,5.53
2018-05-02T23:56:12.378Z,6.10
2018-05-02T23:58:46.039Z,6.60
